createdAt,value
2017-01-07T00:22:24.849Z,80.73
2017-01-07T00:23:06.481Z,80.26
2017-01-07T00:23:49.213Z,80.45
2017-01-07T00:24:31.960Z,80.45
2017-01-07T00:25:12.690Z,80.54
2017-01-07T00:25:54.050Z,80.64
2017-01-07T00:26:34.570Z,80.73
2017-01-07T00:27:15.225Z,80.36
2017-01-07T00:27:55.917Z,80.83
2017-01-07T00:28:37.230Z,80.73
2017-01-07T00:29:19.887Z,80.83
2017-01-07T00:30:00.526Z,80.26
2017-01-07T00:30:42.199Z,80.26
2017-01-07T00:31:22.883Z,79.98
2017-01-07T00:32:03.523Z,80.26
2017-01-07T00:32:44.139Z,80.07
2017-01-07T00:33:24.816Z,80.17
2017-01-07T00:34:06.469Z,80.36
2017-01-07T00:34:47.147Z,80.26
2017-01-07T00:35:27.843Z,80.26
2017-01-07T00:36:08.539Z,80.26
2017-01-07T00:36:49.185Z,79.79
2017-01-07T00:37:29.833Z,79.79
2017-01-07T00:38:10.513Z,79.79
2017-01-07T00:38:51.117Z,79.88
2017-01-07T00:39:32.850Z,79.79
2017-01-07T00:40:13.474Z,79.88
2017-01-07T00:40:54.125Z,79.79
2017-01-07T00:41:34.810Z,79.79
2017-01-07T00:42:17.601Z,79.88
2017-01-07T00:42:58.254Z,79.6
2017-01-07T00:43:38.907Z,79.6
2017-01-07T00:44:19.571Z,79.5
2017-01-07T00:45:00.209Z,79.6
2017-01-07T00:45:40.857Z,79.6
2017-01-07T00:46:21.513Z,79.88
2017-01-07T00:47:02.209Z,79.6
2017-01-07T00:47:42.905Z,79.55
2017-01-07T00:48:23.471Z,79.22
2017-01-07T00:49:04.107Z,79.32
2017-01-07T00:51:02.311Z,79.27
2017-01-07T00:51:42.879Z,79.27
2017-01-07T00:52:23.543Z,79.46
2017-01-07T00:53:04.239Z,78.79
2017-01-07T00:53:45.912Z,78.7
2017-01-07T00:54:27.613Z,79.46
2017-01-07T00:55:08.243Z,79.36
2017-01-07T00:55:48.916Z,78.98
2017-01-07T00:56:29.554Z,79.27
2017-01-07T00:57:10.246Z,79.17
2017-01-07T00:57:50.850Z,78.89
2017-01-07T00:58:31.431Z,78.98
2017-01-07T00:59:12.062Z,79.08
2017-01-07T00:59:54.757Z,78.98
2017-01-07T01:00:35.407Z,79.17
2017-01-07T01:01:15.966Z,79.17
2017-01-07T01:01:56.617Z,79.27
2017-01-07T01:02:37.277Z,79.08
2017-01-07T01:03:17.950Z,79.17
2017-01-07T01:03:58.575Z,79.17
2017-01-07T01:04:40.258Z,79.27
2017-01-07T01:05:20.950Z,79.27
2017-01-07T01:06:01.665Z,79.27
2017-01-07T01:06:43.342Z,78.98
2017-01-07T01:07:27.001Z,78.79
2017-01-07T01:08:07.607Z,78.79
2017-01-07T01:08:48.270Z,78.7
2017-01-07T01:09:29.948Z,78.6
2017-01-07T01:10:10.587Z,78.79
2017-01-07T01:10:51.271Z,78.6
2017-01-07T01:11:32.945Z,78.6
2017-01-07T01:12:14.490Z,78.6
2017-01-07T01:12:56.166Z,78.79
2017-01-07T01:13:36.854Z,78.79
2017-01-07T01:14:17.499Z,78.79
2017-01-07T01:14:59.172Z,78.89
2017-01-07T01:15:39.815Z,78.79
2017-01-07T01:16:24.979Z,78.89
2017-01-07T01:17:06.590Z,78.6
2017-01-07T01:17:49.263Z,78.6
2017-01-07T01:18:30.942Z,78.7
2017-01-07T01:19:11.599Z,78.7
2017-01-07T01:19:52.223Z,78.7
2017-01-07T01:20:32.894Z,78.89
2017-01-07T01:21:13.559Z,78.89
2017-01-07T01:21:54.219Z,78.89
2017-01-07T01:22:34.796Z,78.89
2017-01-07T01:23:15.502Z,78.79
2017-01-07T01:23:57.193Z,78.79
2017-01-07T01:24:38.503Z,78.7
2017-01-07T01:25:19.216Z,78.79
2017-01-07T01:25:59.874Z,78.79
2017-01-07T01:26:41.547Z,78.98
2017-01-07T01:27:22.917Z,78.7
2017-01-07T01:28:03.571Z,78.6
2017-01-07T01:28:44.197Z,78.7
2017-01-07T01:29:25.882Z,78.79
2017-01-07T01:30:06.554Z,78.79
2017-01-07T01:30:48.231Z,78.6
2017-01-07T01:31:28.867Z,78.32
2017-01-07T01:32:09.551Z,78.6
2017-01-07T01:32:50.185Z,78.42
2017-01-07T01:33:30.816Z,78.32
2017-01-07T01:34:11.482Z,78.23
2017-01-07T01:34:53.137Z,78.13
2017-01-07T01:35:34.795Z,78.6
2017-01-07T01:36:16.527Z,78.13
2017-01-07T01:36:57.179Z,78.51
2017-01-07T01:37:38.864Z,78.32
2017-01-07T01:38:19.508Z,78.51
2017-01-07T01:39:00.799Z,78.6
2017-01-07T01:39:41.501Z,78.6
2017-01-07T01:40:22.198Z,78.51
2017-01-07T01:41:02.809Z,78.42
2017-01-07T01:41:43.485Z,78.42
2017-01-07T01:42:24.121Z,78.42
2017-01-07T01:43:04.769Z,78.51
2017-01-07T01:43:46.326Z,78.7
2017-01-07T01:44:27.006Z,78.6
2017-01-07T01:45:07.734Z,77.94
2017-01-07T01:45:48.396Z,77.85
2017-01-07T01:46:28.953Z,77.75
2017-01-07T01:47:10.662Z,77.94
2017-01-07T01:47:52.331Z,78.23
2017-01-07T01:48:32.968Z,78.04
2017-01-07T01:49:13.624Z,78.04
2017-01-07T01:49:54.805Z,78.42
2017-01-07T01:50:35.435Z,78.23
2017-01-07T01:51:17.102Z,77.94
2017-01-07T01:51:57.770Z,77.75
2017-01-07T01:52:40.421Z,77.94
2017-01-07T01:53:21.995Z,77.85
2017-01-07T01:54:02.547Z,77.75
2017-01-07T01:54:43.262Z,78.04
2017-01-07T01:55:23.937Z,77.94
2017-01-07T01:56:04.655Z,77.75
2017-01-07T01:56:45.989Z,77.66
2017-01-07T01:57:26.677Z,77.66
2017-01-07T01:58:07.384Z,78.04
2017-01-07T01:58:48.087Z,77.66
2017-01-07T01:59:28.638Z,77.85
2017-01-07T02:00:09.305Z,78.04
2017-01-07T02:00:50.012Z,78.04
2017-01-07T02:01:30.692Z,77.85
2017-01-07T02:02:11.250Z,77.56
2017-01-07T02:02:51.910Z,77.56
2017-01-07T02:03:32.556Z,77.66
2017-01-07T02:04:13.105Z,77.47
2017-01-07T02:04:53.740Z,77.47
2017-01-07T02:05:34.397Z,77.37
2017-01-07T02:06:14.986Z,77.56
2017-01-07T02:06:55.631Z,77.56
2017-01-07T02:07:36.284Z,77.47
2017-01-07T02:08:16.918Z,77.37
2017-01-07T02:08:57.574Z,77.37
2017-01-07T02:09:38.225Z,77.56
2017-01-07T02:10:23.488Z,77.47
2017-01-07T02:11:05.145Z,77.37
2017-01-07T02:11:45.813Z,77
2017-01-07T02:12:26.521Z,77.19
2017-01-07T02:13:07.121Z,77.09
2017-01-07T02:13:48.297Z,77.09
2017-01-07T02:14:28.939Z,77.09
2017-01-07T02:15:10.467Z,77.19
2017-01-07T02:15:51.165Z,77.19
2017-01-07T02:16:31.731Z,77.09
2017-01-07T02:17:12.379Z,76.81
2017-01-07T02:17:54.053Z,77.09
2017-01-07T02:18:34.693Z,77.09
2017-01-07T02:19:15.353Z,77
2017-01-07T02:19:56.017Z,76.9
2017-01-07T02:20:36.678Z,77.28
2017-01-07T02:21:17.322Z,77.09
2017-01-07T02:21:58.054Z,77
2017-01-07T02:22:38.615Z,76.9
2017-01-07T02:23:20.294Z,76.9
2017-01-07T02:24:00.995Z,76.62
2017-01-07T02:24:41.537Z,76.53
2017-01-07T02:25:22.271Z,76.72
2017-01-07T02:26:04.885Z,76.72
2017-01-07T02:26:45.423Z,76.81
2017-01-07T02:27:26.605Z,76.81
2017-01-07T02:28:07.254Z,76.81
2017-01-07T02:28:49.916Z,76.72
2017-01-07T02:29:30.467Z,76.72
2017-01-07T02:30:11.124Z,76.62
2017-01-07T02:30:52.438Z,76.43
2017-01-07T02:31:33.980Z,76.34
2017-01-07T02:32:14.622Z,76.62
2017-01-07T02:32:56.293Z,76.81
2017-01-07T02:33:36.946Z,76.43
2017-01-07T02:34:18.621Z,76.25
2017-01-07T02:34:59.367Z,76.9
2017-01-07T02:35:40.033Z,76.43
2017-01-07T02:36:20.682Z,76.62
2017-01-07T02:37:01.247Z,76.62
2017-01-07T02:37:41.897Z,76.53
2017-01-07T02:38:22.604Z,76.72
2017-01-07T02:39:03.298Z,76.72
2017-01-07T02:39:43.921Z,76.53
2017-01-07T02:40:24.612Z,76.53
2017-01-07T02:41:05.313Z,76.62
2017-01-07T02:41:46.005Z,76.72
2017-01-07T02:42:26.555Z,76.62
2017-01-07T02:43:07.223Z,76.62
2017-01-07T02:43:48.947Z,76.72
2017-01-07T02:44:30.666Z,76.62
2017-01-07T02:45:11.225Z,76.62
2017-01-07T02:45:51.890Z,76.72
2017-01-07T02:46:32.567Z,76.81
2017-01-07T02:47:13.280Z,76.62
2017-01-07T02:47:53.845Z,76.62
2017-01-07T02:48:34.427Z,76.53
2017-01-07T02:49:15.157Z,76.72
2017-01-07T02:49:56.826Z,76.72
2017-01-07T02:50:38.485Z,76.72
2017-01-07T02:51:19.162Z,76.43
2017-01-07T02:51:59.813Z,76.9
2017-01-07T02:52:40.460Z,76.81
2017-01-07T02:53:21.096Z,76.62
2017-01-07T02:54:01.764Z,76.81
2017-01-07T02:54:42.419Z,76.81
2017-01-07T02:55:23.060Z,76.72
2017-01-07T02:56:03.749Z,76.9
2017-01-07T02:56:45.396Z,76.81
2017-01-07T02:57:26.036Z,76.81
2017-01-07T02:58:06.685Z,77.09
2017-01-07T02:58:49.401Z,76.43
2017-01-07T02:59:30.047Z,76.53
2017-01-07T03:00:10.601Z,76.34
2017-01-07T03:00:53.303Z,76.06
2017-01-07T03:01:34.030Z,76.43
2017-01-07T03:02:14.703Z,76.43
2017-01-07T03:02:55.376Z,76.25
2017-01-07T03:03:36.020Z,76.34
2017-01-07T03:04:16.664Z,75.96
2017-01-07T03:04:58.336Z,76.15
2017-01-07T03:05:39.094Z,75.96
2017-01-07T03:06:19.749Z,76.25
2017-01-07T03:07:00.369Z,76.15
2017-01-07T03:07:41.998Z,76.15
2017-01-07T03:08:24.681Z,76.25
2017-01-07T03:09:05.237Z,75.96
2017-01-07T03:09:46.921Z,75.96
2017-01-07T03:10:28.593Z,75.96
2017-01-07T03:11:09.148Z,75.78
2017-01-07T03:11:49.813Z,75.78
2017-01-07T03:12:30.537Z,75.96
2017-01-07T03:13:11.189Z,76.15
2017-01-07T03:13:52.792Z,76.43
2017-01-07T03:14:33.532Z,76.43
2017-01-07T03:15:14.176Z,76.43
2017-01-07T03:15:54.835Z,76.43
2017-01-07T03:16:35.480Z,76.43
2017-01-07T03:17:16.062Z,76.25
2017-01-07T03:17:56.796Z,76.25
2017-01-07T03:18:39.438Z,76.34
2017-01-07T03:19:20.157Z,76.25
2017-01-07T03:20:00.714Z,75.87
2017-01-07T03:20:41.342Z,76.34
2017-01-07T03:21:22.059Z,76.9
2017-01-07T03:22:02.754Z,76.25
2017-01-07T03:22:43.318Z,75.96
2017-01-07T03:23:23.987Z,75.87
2017-01-07T03:24:04.726Z,75.96
2017-01-07T03:24:45.371Z,75.96
2017-01-07T03:25:26.013Z,75.96
2017-01-07T03:26:06.690Z,75.96
2017-01-07T03:26:47.337Z,76.34
2017-01-07T03:27:28.097Z,75.96
2017-01-07T03:28:08.725Z,76.06
2017-01-07T03:28:49.277Z,76.25
2017-01-07T03:29:29.945Z,75.87
2017-01-07T03:30:10.651Z,75.96
2017-01-07T03:30:51.337Z,76.06
2017-01-07T03:31:31.902Z,76.06
2017-01-07T03:32:12.588Z,76.06
2017-01-07T03:32:55.242Z,75.96
2017-01-07T03:33:35.808Z,76.34
2017-01-07T03:34:16.464Z,76.43
2017-01-07T03:34:58.121Z,75.78
2017-01-07T03:35:38.719Z,76.25
2017-01-07T03:36:19.426Z,76.25
2017-01-07T03:37:01.116Z,76.06
2017-01-07T03:37:41.678Z,76.06
2017-01-07T03:38:22.333Z,75.96
2017-01-07T03:39:04.011Z,76.15
2017-01-07T03:39:45.689Z,76.15
2017-01-07T03:40:31.052Z,75.96
2017-01-07T03:41:11.603Z,76.15
2017-01-07T03:41:53.273Z,76.06
2017-01-07T03:42:33.961Z,76.06
2017-01-07T03:43:14.661Z,75.96
2017-01-07T03:43:55.233Z,75.87
2017-01-07T03:44:37.940Z,76.25
2017-01-07T03:45:18.618Z,76.06
2017-01-07T03:46:01.367Z,76.15
2017-01-07T03:46:41.944Z,76.15
2017-01-07T03:47:22.590Z,76.34
2017-01-07T03:48:03.247Z,76.06
2017-01-07T03:48:43.901Z,76.06
2017-01-07T03:49:24.549Z,76.15
2017-01-07T03:50:05.203Z,76.15
2017-01-07T03:50:46.884Z,76.15
2017-01-07T03:51:28.546Z,76.15
2017-01-07T03:52:09.207Z,76.25
2017-01-07T03:52:49.872Z,76.25
2017-01-07T03:53:30.521Z,76.15
2017-01-07T03:54:12.188Z,76.15
2017-01-07T03:54:52.850Z,76.43
2017-01-07T03:55:33.550Z,75.96
2017-01-07T03:56:14.266Z,76.34
2017-01-07T03:56:55.923Z,76.43
2017-01-07T03:57:37.748Z,76.25
2017-01-07T03:58:19.382Z,76.43
2017-01-07T03:58:59.936Z,76.53
2017-01-07T03:59:40.593Z,76.53
2017-01-07T04:00:21.220Z,76.34
2017-01-07T04:01:02.923Z,75.87
2017-01-07T04:01:43.478Z,76.06
2017-01-07T04:02:25.149Z,76.25
2017-01-07T04:03:05.905Z,76.34
2017-01-07T04:03:46.446Z,76.34
2017-01-07T04:04:27.114Z,76.25
2017-01-07T04:05:07.863Z,76.06
2017-01-07T04:05:48.427Z,75.68
2017-01-07T04:06:29.069Z,75.87
2017-01-07T04:07:10.849Z,75.68
2017-01-07T04:07:51.425Z,75.87
2017-01-07T04:08:33.085Z,75.68
2017-01-07T04:09:13.840Z,75.68
2017-01-07T04:09:54.408Z,75.68
2017-01-07T04:10:35.062Z,75.21
2017-01-07T04:11:16.503Z,75.49
2017-01-07T04:11:57.059Z,75.4
2017-01-07T04:12:38.635Z,75.4
2017-01-07T04:13:19.351Z,75.02
2017-01-07T04:14:02.082Z,75.02
2017-01-07T04:14:42.642Z,75.02
2017-01-07T04:15:25.353Z,75.11
2017-01-07T04:16:08.094Z,75.21
2017-01-07T04:16:48.783Z,74.83
2017-01-07T04:17:29.341Z,74.92
2017-01-07T04:18:11.002Z,75.21
2017-01-07T04:18:51.703Z,74.74
2017-01-07T04:19:32.430Z,74.74
2017-01-07T04:20:12.983Z,74.45
2017-01-07T04:20:53.656Z,74.64
2017-01-07T04:21:38.867Z,74.36
2017-01-07T04:22:19.547Z,74.36
2017-01-07T04:23:05.217Z,74.45
2017-01-07T04:23:46.614Z,74.45
2017-01-07T04:24:27.333Z,74.55
2017-01-07T04:25:08.138Z,74.55
2017-01-07T04:25:48.853Z,74.55
2017-01-07T04:26:31.489Z,74.36
2017-01-07T04:27:12.057Z,74.36
2017-01-07T04:27:52.769Z,74.36
2017-01-07T04:28:33.451Z,74.36
2017-01-07T04:29:14.156Z,74.36
2017-01-07T04:29:54.702Z,74.17
2017-01-07T04:30:35.282Z,74.55
2017-01-07T04:31:16.998Z,74.36
2017-01-07T04:31:58.721Z,74.74
2017-01-07T04:32:39.424Z,74.83
2017-01-07T04:33:20.145Z,75.02
2017-01-07T04:34:00.910Z,75.21
2017-01-07T04:34:42.586Z,75.21
2017-01-07T04:35:23.348Z,75.49
2017-01-07T04:36:04.075Z,75.49
2017-01-07T04:36:45.773Z,75.68
2017-01-07T04:37:26.528Z,75.87
2017-01-07T04:38:07.280Z,76.06
2017-01-07T04:38:48.053Z,76.43
2017-01-07T04:39:29.793Z,76.15
2017-01-07T04:40:10.466Z,76.72
2017-01-07T04:40:51.206Z,76.34
2017-01-07T04:41:31.875Z,76.81
2017-01-07T04:42:12.624Z,76.72
2017-01-07T04:42:53.318Z,76.62
2017-01-07T04:43:35.041Z,77
2017-01-07T04:44:16.302Z,77.09
2017-01-07T04:44:56.962Z,77.28
2017-01-07T04:45:39.605Z,77.47
2017-01-07T04:46:20.313Z,77.85
2017-01-07T04:47:00.857Z,77.56
2017-01-07T04:47:41.543Z,77.75
2017-01-07T04:48:23.255Z,78.04
2017-01-07T04:49:03.947Z,78.6
2017-01-07T04:49:44.502Z,78.32
2017-01-07T04:50:25.174Z,78.6
2017-01-07T04:51:05.865Z,78.79
2017-01-07T04:51:46.589Z,78.98
2017-01-07T04:52:27.151Z,79.46
2017-01-07T04:53:07.867Z,79.64
2017-01-07T04:53:49.561Z,79.74
2017-01-07T04:54:30.321Z,79.64
2017-01-07T04:55:12.048Z,79.83
2017-01-07T04:55:53.772Z,80.4
2017-01-07T04:56:34.448Z,80.3
2017-01-07T04:57:15.167Z,80.3
2017-01-07T04:57:55.813Z,80.96
2017-01-07T04:58:36.369Z,81.15
2017-01-07T04:59:17.033Z,81.15
2017-01-07T04:59:57.777Z,81.15
2017-01-07T05:00:38.340Z,81.24
2017-01-07T05:01:19.097Z,81.91
2017-01-07T05:01:59.757Z,81.62
2017-01-07T05:02:40.326Z,81.72
2017-01-07T05:03:22.080Z,81.81
2017-01-07T05:04:02.830Z,81.91
2017-01-07T05:04:43.487Z,82.47
2017-01-07T05:05:24.291Z,82.19
2017-01-07T05:06:04.896Z,82
2017-01-07T05:06:45.649Z,82
2017-01-07T05:07:26.412Z,82.19
2017-01-07T05:08:07.188Z,82.1
2017-01-07T05:08:47.916Z,82.1
2017-01-07T05:09:28.677Z,82.28
2017-01-07T05:10:09.435Z,82.57
2017-01-07T05:10:50.206Z,82.66
2017-01-07T05:11:30.950Z,82.66
2017-01-07T05:12:11.699Z,83.14
2017-01-07T05:12:52.455Z,82.95
2017-01-07T05:13:33.218Z,82.85
2017-01-07T05:14:13.963Z,83.33
2017-01-07T05:14:54.720Z,83.23
2017-01-07T05:15:35.378Z,83.23
2017-01-07T05:16:18.081Z,83.42
2017-01-07T05:16:58.828Z,83.98
2017-01-07T05:17:39.589Z,83.8
2017-01-07T05:18:20.338Z,83.61
2017-01-07T05:19:01.113Z,83.98
2017-01-07T05:19:42.879Z,84.17
2017-01-07T05:20:23.631Z,84.08
2017-01-07T05:21:04.381Z,83.89
2017-01-07T05:21:45.137Z,84.27
2017-01-07T05:22:26.826Z,84.36
2017-01-07T05:23:07.517Z,84.45
2017-01-07T05:23:48.207Z,84.55
2017-01-07T05:24:28.818Z,84.64
2017-01-07T05:25:09.529Z,84.64
2017-01-07T05:25:50.215Z,84.55
2017-01-07T05:26:30.936Z,84.45
2017-01-07T05:27:11.485Z,84.55
2017-01-07T05:27:52.231Z,84.55
2017-01-07T05:28:32.954Z,84.74
2017-01-07T05:29:13.638Z,84.83
2017-01-07T05:29:54.189Z,85.3
2017-01-07T05:30:34.961Z,85.11
2017-01-07T05:31:15.646Z,85.02
2017-01-07T05:31:56.352Z,85.11
2017-01-07T05:32:36.935Z,85.11
2017-01-07T05:33:17.661Z,85.02
2017-01-07T05:33:58.420Z,85.11
2017-01-07T05:34:39.178Z,85.3
2017-01-07T05:35:20.868Z,85.49
2017-01-07T05:36:01.609Z,85.68
2017-01-07T05:36:42.382Z,85.77
2017-01-07T05:37:25.097Z,85.87
2017-01-07T05:38:05.855Z,85.59
2017-01-07T05:38:46.566Z,85.68
2017-01-07T05:39:27.113Z,85.49
2017-01-07T05:40:08.792Z,85.68
2017-01-07T05:40:49.487Z,85.68
2017-01-07T05:41:30.201Z,85.87
2017-01-07T05:42:10.752Z,85.96
2017-01-07T05:42:51.415Z,86.44
2017-01-07T05:43:33.188Z,86.25
2017-01-07T05:44:13.768Z,86.44
2017-01-07T05:44:54.499Z,86.15
2017-01-07T05:45:35.241Z,86.34
2017-01-07T05:46:15.832Z,86.06
2017-01-07T05:46:57.596Z,86.25
2017-01-07T05:47:38.329Z,86.25
2017-01-07T05:48:19.087Z,86.34
2017-01-07T05:49:00.762Z,86.34
2017-01-07T05:49:41.518Z,86.91
2017-01-07T05:50:23.319Z,86.72
2017-01-07T05:51:04.047Z,86.91
2017-01-07T05:51:45.507Z,86.72
2017-01-07T05:52:26.063Z,86.82
2017-01-07T05:53:06.774Z,86.53
2017-01-07T05:53:47.532Z,86.72
2017-01-07T05:54:28.339Z,86.53
2017-01-07T05:55:09.810Z,86.63
2017-01-07T05:55:50.486Z,86.82
2017-01-07T05:56:31.168Z,86.82
2017-01-07T05:57:11.865Z,86.63
2017-01-07T05:57:53.451Z,87
2017-01-07T05:58:35.121Z,86.91
2017-01-07T05:59:16.818Z,86.91
2017-01-07T05:59:57.546Z,86.53
2017-01-07T06:00:38.311Z,86.72
2017-01-07T06:01:19.062Z,86.72
2017-01-07T06:01:59.820Z,86.91
2017-01-07T06:02:40.365Z,86.63
2017-01-07T06:03:21.040Z,86.91
2017-01-07T06:04:01.725Z,86.91
2017-01-07T06:04:43.452Z,86.44
2017-01-07T06:05:24.028Z,86.44
2017-01-07T06:06:04.759Z,86.63
2017-01-07T06:06:45.484Z,86.63
2017-01-07T06:07:26.164Z,86.53
2017-01-07T06:08:06.744Z,86.53
2017-01-07T06:08:47.492Z,87
2017-01-07T06:09:28.193Z,87
2017-01-07T06:10:08.984Z,87.1
2017-01-07T06:10:49.533Z,87
2017-01-07T06:11:30.287Z,87
2017-01-07T06:12:14.002Z,86.72
2017-01-07T06:12:54.557Z,86.91
2017-01-07T06:13:36.160Z,86.82
2017-01-07T06:14:16.914Z,86.72
2017-01-07T06:14:57.481Z,86.72
2017-01-07T06:15:39.262Z,87
2017-01-07T06:16:21.944Z,86.82
2017-01-07T06:17:02.495Z,86.82
2017-01-07T06:17:43.256Z,86.82
2017-01-07T06:18:23.957Z,87
2017-01-07T06:19:04.659Z,87.19
2017-01-07T06:19:45.232Z,87.19
2017-01-07T06:20:25.964Z,87.29
2017-01-07T06:21:06.677Z,87.19
2017-01-07T06:21:48.395Z,87.19
2017-01-07T06:22:28.938Z,87
2017-01-07T06:23:09.713Z,87.19
2017-01-07T06:23:50.465Z,87.29
2017-01-07T06:24:31.220Z,87.29
2017-01-07T06:25:12.102Z,86.72
2017-01-07T06:25:52.834Z,86.72
2017-01-07T06:26:33.578Z,86.91
2017-01-07T06:27:14.355Z,86.91
2017-01-07T06:27:55.086Z,86.91
2017-01-07T06:28:35.657Z,87
2017-01-07T06:29:16.408Z,87.76
2017-01-07T06:29:57.148Z,87.57
2017-01-07T06:30:37.712Z,87.48
2017-01-07T06:31:18.474Z,87.48
2017-01-07T06:31:59.228Z,87.57
2017-01-07T06:32:39.978Z,87.57
2017-01-07T06:33:20.719Z,87.57
2017-01-07T06:34:01.480Z,87.48
2017-01-07T06:34:42.241Z,87.48
2017-01-07T06:35:24.011Z,87.57
2017-01-07T06:36:04.756Z,87.66
2017-01-07T06:36:45.738Z,87.38
2017-01-07T06:37:28.429Z,87.29
2017-01-07T06:38:10.102Z,87.48
2017-01-07T06:38:50.858Z,87.48
2017-01-07T06:39:31.619Z,87.29
2017-01-07T06:40:12.372Z,87.19
2017-01-07T06:40:53.120Z,87.19
2017-01-07T06:41:33.898Z,87.19
2017-01-07T06:42:15.661Z,87.38
2017-01-07T06:42:56.201Z,87.48
2017-01-07T06:43:37.878Z,87.48
2017-01-07T06:44:18.611Z,87.48
2017-01-07T06:44:59.394Z,87.48
2017-01-07T06:45:39.966Z,87.57
2017-01-07T06:46:20.721Z,87.29
2017-01-07T06:47:01.412Z,87.48
2017-01-07T06:47:42.104Z,87.57
2017-01-07T06:48:22.652Z,87.38
2017-01-07T06:49:03.427Z,87.38
2017-01-07T06:49:44.229Z,87.57
2017-01-07T06:50:24.915Z,87.57
2017-01-07T06:51:05.472Z,88.04
2017-01-07T06:51:46.240Z,87.48
2017-01-07T06:52:26.931Z,88.04
2017-01-07T06:53:07.635Z,87.95
2017-01-07T06:53:48.207Z,87.76
2017-01-07T06:54:28.963Z,87.95
2017-01-07T06:55:09.638Z,87.95
2017-01-07T06:55:50.347Z,87.85
2017-01-07T06:56:30.919Z,87.85
2017-01-07T06:57:11.678Z,87.76
2017-01-07T06:57:52.473Z,87.85
2017-01-07T06:58:33.179Z,87.85
2017-01-07T06:59:14.856Z,87.85
2017-01-07T06:59:56.532Z,87.57
2017-01-07T07:00:38.215Z,87.57
2017-01-07T07:01:20.012Z,87.57
2017-01-07T07:02:00.751Z,87.76
2017-01-07T07:02:41.484Z,87.76
2017-01-07T07:03:26.916Z,87.85
2017-01-07T07:04:08.651Z,87.57
2017-01-07T07:04:49.201Z,87.76
2017-01-07T07:05:29.957Z,87.85
2017-01-07T07:06:10.735Z,87.48
2017-01-07T07:06:51.460Z,87.95
2017-01-07T07:07:32.014Z,87.57
2017-01-07T07:08:12.774Z,87.48
2017-01-07T07:08:53.525Z,87.66
2017-01-07T07:09:35.310Z,87.66
2017-01-07T07:10:16.047Z,87.48
2017-01-07T07:10:56.835Z,87.57
2017-01-07T07:11:37.569Z,87.66
2017-01-07T07:12:19.349Z,87.57
2017-01-07T07:13:00.045Z,87.57
2017-01-07T07:13:40.743Z,87.66
2017-01-07T07:14:21.336Z,87.95
2017-01-07T07:15:02.058Z,87.76
2017-01-07T07:15:42.762Z,87.85
2017-01-07T07:16:23.458Z,87.48
2017-01-07T07:17:04.074Z,87.85
2017-01-07T07:17:44.795Z,87.66
2017-01-07T07:18:26.555Z,87.76
2017-01-07T07:19:07.309Z,87.76
2017-01-07T07:19:48.067Z,87.85
2017-01-07T07:20:29.832Z,88.04
2017-01-07T07:21:10.599Z,87.66
2017-01-07T07:21:51.376Z,88.13
2017-01-07T07:22:33.134Z,88.23
2017-01-07T07:23:13.885Z,87.85
2017-01-07T07:23:54.441Z,88.04
2017-01-07T07:24:35.195Z,87.95
2017-01-07T07:25:15.971Z,88.7
2017-01-07T07:25:56.511Z,88.79
2017-01-07T07:26:37.242Z,88.7
2017-01-07T07:27:17.993Z,88.51
2017-01-07T07:27:58.562Z,88.51
2017-01-07T07:28:39.318Z,88.23
2017-01-07T07:29:20.009Z,88.7
2017-01-07T07:30:00.712Z,88.32
2017-01-07T07:30:41.275Z,88.42
2017-01-07T07:31:21.928Z,88.51
2017-01-07T07:32:03.540Z,88.51
2017-01-07T07:32:44.117Z,88.32
2017-01-07T07:33:25.835Z,88.42
2017-01-07T07:34:07.508Z,88.32
2017-01-07T07:34:48.061Z,88.51
2017-01-07T07:35:28.789Z,88.42
2017-01-07T07:36:09.450Z,88.23
2017-01-07T07:36:50.018Z,88.13
2017-01-07T07:37:30.693Z,88.32
2017-01-07T07:38:11.311Z,88.32
2017-01-07T07:38:51.873Z,88.32
2017-01-07T07:39:32.521Z,88.32
2017-01-07T07:40:13.178Z,88.32
2017-01-07T07:40:53.954Z,88.6
2017-01-07T07:41:35.614Z,88.23
2017-01-07T07:42:16.264Z,88.32
2017-01-07T07:42:56.900Z,88.42
2017-01-07T07:43:37.554Z,88.13
2017-01-07T07:44:19.126Z,88.23
2017-01-07T07:45:00.719Z,88.32
2017-01-07T07:45:41.373Z,88.42
2017-01-07T07:46:22.028Z,88.42
2017-01-07T07:47:02.687Z,88.32
2017-01-07T07:47:43.353Z,88.32
2017-01-07T07:48:23.921Z,88.23
2017-01-07T07:49:04.514Z,88.23
2017-01-07T07:49:45.068Z,88.42
2017-01-07T07:50:25.737Z,88.51
2017-01-07T07:51:07.342Z,88.23
2017-01-07T07:51:47.964Z,88.32
2017-01-07T07:52:28.517Z,88.23
2017-01-07T07:53:09.149Z,88.13
2017-01-07T07:53:49.814Z,88.32
2017-01-07T07:54:30.467Z,88.32
2017-01-07T07:55:13.072Z,88.23
2017-01-07T07:55:53.707Z,88.42
2017-01-07T07:56:34.378Z,88.23
2017-01-07T07:57:15.030Z,88.32
2017-01-07T07:57:55.682Z,88.32
2017-01-07T07:58:36.259Z,88.42
2017-01-07T07:59:16.884Z,88.23
2017-01-07T07:59:57.532Z,88.32
2017-01-07T08:00:38.090Z,88.32
2017-01-07T08:01:18.743Z,88.32
2017-01-07T08:01:59.377Z,88.51
2017-01-07T08:02:39.936Z,88.32
2017-01-07T08:03:21.606Z,88.42
2017-01-07T08:04:03.282Z,88.32
2017-01-07T08:04:43.847Z,88.51
2017-01-07T08:05:24.513Z,88.51
2017-01-07T08:06:05.139Z,88.32
2017-01-07T08:06:45.690Z,88.32
2017-01-07T08:07:26.356Z,88.7
2017-01-07T08:08:08.027Z,88.51
2017-01-07T08:08:48.589Z,88.23
2017-01-07T08:09:30.248Z,88.51
2017-01-07T08:10:10.867Z,88.51
2017-01-07T08:10:51.561Z,88.7
2017-01-07T08:11:32.123Z,88.7
2017-01-07T08:12:12.775Z,88.51
2017-01-07T08:12:54.391Z,88.6
2017-01-07T08:13:35.053Z,87.95
2017-01-07T08:14:15.714Z,88.23
2017-01-07T08:14:56.356Z,88.6
2017-01-07T08:15:37.010Z,88.32
2017-01-07T08:16:17.645Z,88.23
2017-01-07T08:16:58.316Z,87.85
2017-01-07T08:17:39.077Z,87.85
2017-01-07T08:18:19.663Z,87.85
2017-01-07T08:19:00.230Z,87.76
2017-01-07T08:19:40.865Z,87.66
2017-01-07T08:20:21.478Z,88.04
2017-01-07T08:21:03.102Z,87.85
2017-01-07T08:21:43.661Z,87.95
2017-01-07T08:22:25.364Z,87.76
2017-01-07T08:23:06.034Z,87.66
2017-01-07T08:23:46.687Z,87.57
2017-01-07T08:24:27.332Z,87.57
2017-01-07T08:25:09.012Z,87.76
2017-01-07T08:25:49.683Z,87.66
2017-01-07T08:26:30.313Z,87.62
2017-01-07T08:27:12.002Z,87.62
2017-01-07T08:27:52.652Z,87.48
2017-01-07T08:28:34.321Z,87.66
2017-01-07T08:29:16.007Z,87.62
2017-01-07T08:29:57.685Z,87.71
2017-01-07T08:30:38.335Z,88.04
2017-01-07T08:31:18.988Z,87.8
2017-01-07T08:31:59.641Z,87.9
2017-01-07T08:32:40.283Z,87.76
2017-01-07T08:33:20.959Z,87.8
2017-01-07T08:34:01.637Z,87.9
2017-01-07T08:34:42.372Z,87.8
2017-01-07T08:35:23.021Z,87.71
2017-01-07T08:36:03.787Z,87.43
2017-01-07T08:36:44.532Z,87.62
2017-01-07T08:37:25.181Z,87.24
2017-01-07T08:38:05.862Z,87.52
2017-01-07T08:38:46.577Z,87.43
2017-01-07T08:39:27.317Z,87.43
2017-01-07T08:40:07.972Z,87.62
2017-01-07T08:40:48.744Z,87.62
2017-01-07T08:41:29.501Z,87.05
2017-01-07T08:42:11.163Z,86.95
2017-01-07T08:42:51.822Z,86.95
2017-01-07T08:43:32.500Z,87.43
2017-01-07T08:44:14.211Z,87.05
2017-01-07T08:44:54.854Z,86.86
2017-01-07T08:45:35.509Z,86.95
2017-01-07T08:46:17.241Z,87.14
2017-01-07T08:46:57.801Z,86.57
2017-01-07T08:47:39.584Z,86.57
2017-01-07T08:48:20.221Z,86.95
2017-01-07T08:49:05.514Z,87.52
2017-01-07T08:49:46.245Z,86.67
2017-01-07T08:50:27.928Z,86.95
2017-01-07T08:51:13.473Z,86.76
2017-01-07T08:51:54.169Z,86.67
2017-01-07T08:52:35.828Z,86.95
2017-01-07T08:53:16.605Z,86.38
2017-01-07T08:53:57.326Z,86.57
2017-01-07T08:54:38.009Z,86.57
2017-01-07T08:55:18.745Z,86.57
2017-01-07T08:56:02.181Z,86.48
2017-01-07T08:56:42.904Z,86.57
2017-01-07T08:57:24.288Z,86.95
2017-01-07T08:58:05.962Z,86.95
2017-01-07T08:58:46.617Z,85.91
2017-01-07T08:59:28.280Z,86.67
2017-01-07T09:00:08.943Z,86.1
2017-01-07T09:00:49.710Z,86.38
2017-01-07T09:01:32.422Z,86.29
2017-01-07T09:02:13.136Z,86.19
2017-01-07T09:02:53.798Z,86.01
2017-01-07T09:03:34.454Z,86.19
2017-01-07T09:04:15.120Z,86.38
2017-01-07T09:04:55.865Z,86.38
2017-01-07T09:05:41.546Z,86.19
2017-01-07T09:06:23.208Z,86.1
2017-01-07T09:07:03.847Z,86.48
2017-01-07T09:07:44.523Z,86.01
2017-01-07T09:08:25.181Z,85.91
2017-01-07T09:09:05.816Z,86.01
2017-01-07T09:09:47.501Z,85.91
2017-01-07T09:10:29.192Z,85.82
2017-01-07T09:11:09.927Z,85.82
2017-01-07T09:11:50.599Z,85.63
2017-01-07T09:12:31.392Z,85.63
2017-01-07T09:13:14.155Z,86.01
2017-01-07T09:13:54.897Z,85.53